Aeroporto :
LOGIN :

Iscrizione | Disclaimer

   EN    FR    IT 

 










Sommario :    VFR   VFR Marginale   IFR   IFR Intensivo   IFR Molto Intensivo
Visibilità : 
Base nubi : 
>= 8 km
>= 3000ft
5 / 8 km
1000 / 3000 ft
1500m / 5 km
500 / 1000 ft
800 / 1500m
200 / 500 ft
< 800m
< 200 ft
Simboli :   Temporali  Nebbia  Neve Forte  Precipitazioni Forti  Vento > 20 kt
SIGMETs :   Varie  Temporali  Ghiacco  Turbolenza  Onda orograficha  Ceneri Vulcaniche







- Altitudine del aeroporto : 82 ft
- Codice IATA : AAR


EKAH - Aarhus Tirstrup

ULTIMO METAR :
  • 252120Z AUTO 11001KT 9999NDV NCD 21/19 Q1020

METARs OBSOLETI :
  • 252050Z AUTO 06001KT 9999NDV NCD 22/19 Q1020
  • 252020Z AUTO 13002KT 9999NDV NCD 23/19 Q1020
  • 251950Z AUTO 10002KT 9999NDV NCD 23/19 Q1020
  • 251920Z AUTO 07003KT 9999NDV NCD 24/19 Q1020
  • 251850Z AUTO 09003KT 9999NDV NCD 25/19 Q1020

TAF TAF EKAH
Valido dal 25 a 18 ore il 26 a 18 ore UTC


251701Z 2518/2618 14008KT 9999 SCT020
BECMG 2606/2609 34010KT
TEMPO 2615/2618 32015G25KT
Nessun NOTAM noto per questo aeroporto.



MetMap, La meteo Aeronautica in un colpo d'occhio ! - Copyright ORBIFLY Dicembre 2007 - Disclaimer

ORBIFLY MET'MAP TEAM :

Programmazione e sviluppo : Alexandra Zaïnal
Concezione e sviluppo : Baudouin d'Aumeries
Co-Programmazione e sviluppo : Marc-Olivier Méhu
Supporto tecnico e logistico : Manuel Goepfert
Aiuto per la traduzione : Arnaldo La Scala

Contatto : metmap@orbifly.com




FONTI E CREDITI :

   NOAA